Time;durP1;ratioP1;P1;durP2;ratioP2;P2;SDS_P1;SDS_P2;PMS_P1;PMS_P2;Temp;Humidity;BMP_temperature;BMP_pressure;BME280_temperature;BME280_humidity;BME280_pressure;Samples;Min_cycle;Max_cycle;Signal;HPM_P1;HPM_P2
2022/07/09 00:01:53;;;;;;;1999.90;999.90;;;;;;;17.53;49.30;96477.78;5025748;28;20021;-67
2022/07/09 00:04:18;;;;;;;1999.90;999.90;;;;;;;17.52;49.42;96483.47;5031033;28;20023;-67
2022/07/09 00:06:43;;;;;;;1999.90;999.90;;;;;;;17.44;49.35;96468.13;5032442;28;20049;-69
2022/07/09 00:09:09;;;;;;;1999.90;999.90;;;;;;;17.43;49.56;96478.09;5029814;28;20482;-67
2022/07/09 00:11:34;;;;;;;1999.90;999.90;;;;;;;17.30;49.56;96457.50;5030693;28;20026;-68
2022/07/09 00:13:59;;;;;;;1999.90;999.90;;;;;;;17.36;49.78;96475.88;5030706;28;20096;-68
2022/07/09 00:16:25;;;;;;;1999.90;999.90;;;;;;;17.27;50.13;96467.00;5030592;28;20045;-68
2022/07/09 00:18:50;;;;;;;1999.90;999.90;;;;;;;17.37;50.10;96469.38;5031488;28;20025;-68
2022/07/09 00:21:15;;;;;;;1999.90;999.90;;;;;;;17.47;49.84;96476.34;5030278;28;20037;-68
2022/07/09 00:23:41;;;;;;;1999.90;999.90;;;;;;;17.48;49.93;96469.88;5030938;28;20101;-69
2022/07/09 00:26:06;;;;;;;1999.90;999.90;;;;;;;17.39;49.50;96467.16;5031419;28;20037;-68
2022/07/09 00:28:31;;;;;;;1999.90;999.90;;;;;;;17.31;50.09;96461.78;5030983;28;20040;-67
2022/07/09 00:30:56;;;;;;;1999.90;999.90;;;;;;;17.24;50.54;96462.22;5030914;28;20363;-68
2022/07/09 00:33:22;;;;;;;1999.90;999.90;;;;;;;17.23;50.86;96466.03;5029708;28;20025;-67
2022/07/09 00:35:47;;;;;;;1999.90;999.90;;;;;;;17.13;50.90;96461.75;5032107;28;20029;-68
2022/07/09 00:38:12;;;;;;;1999.90;999.90;;;;;;;17.09;51.60;96455.41;5031126;28;20033;-68
2022/07/09 00:40:38;;;;;;;1999.90;999.90;;;;;;;17.13;51.21;96459.06;5030579;28;20037;-68
2022/07/09 00:43:03;;;;;;;1999.90;999.90;;;;;;;17.02;51.16;96438.16;5030700;28;20490;-68
2022/07/09 00:45:29;;;;;;;1999.90;999.90;;;;;;;16.99;51.37;96425.34;5028318;28;20743;-68
2022/07/09 00:47:54;;;;;;;1999.90;999.90;;;;;;;16.86;51.24;96421.69;5029606;28;20576;-68
2022/07/09 00:50:19;;;;;;;1999.90;999.90;;;;;;;16.93;51.26;96445.41;5028369;28;20026;-67
2022/07/09 00:52:46;;;;;;;1999.90;999.90;;;;;;;16.86;51.31;96437.81;5028822;28;20025;-68
2022/07/09 00:55:11;;;;;;;1999.90;999.90;;;;;;;16.86;51.93;96449.34;5030263;28;20021;-68
2022/07/09 00:57:38;;;;;;;1999.90;999.90;;;;;;;16.85;52.24;96449.66;5030688;28;20393;-67
2022/07/09 01:00:04;;;;;;;1999.90;999.90;;;;;;;16.87;52.11;96458.19;5028712;28;20036;-69
2022/07/09 01:02:29;;;;;;;1999.90;999.90;;;;;;;16.83;52.13;96441.09;5029050;28;20021;-67
2022/07/09 01:04:55;;;;;;;1999.90;999.90;;;;;;;16.64;52.40;96414.50;5029361;28;20044;-67
2022/07/09 01:07:20;;;;;;;1999.90;999.90;;;;;;;16.79;52.41;96443.66;5030281;28;20525;-67
2022/07/09 01:09:46;;;;;;;1999.90;999.90;;;;;;;16.56;52.38;96417.94;5029318;28;20386;-67
2022/07/09 01:12:11;;;;;;;1999.90;999.90;;;;;;;16.58;52.42;96419.22;5030535;28;20025;-67
2022/07/09 01:14:36;;;;;;;1999.90;999.90;;;;;;;16.52;52.87;96415.06;5028621;28;20033;-67
2022/07/09 01:17:04;;;;;;;1999.90;999.90;;;;;;;16.69;52.65;96432.38;5029210;28;20022;-66
2022/07/09 01:19:31;;;;;;;1999.90;999.90;;;;;;;16.73;52.79;96436.81;5030090;28;20060;-67
2022/07/09 01:21:56;;;;;;;1999.90;999.90;;;;;;;16.72;53.07;96434.44;5031147;28;20470;-68
2022/07/09 01:24:24;;;;;;;1999.90;999.90;;;;;;;16.68;53.21;96420.81;5030361;28;20028;-67
2022/07/09 01:26:52;;;;;;;1999.90;999.90;;;;;;;16.69;53.06;96411.66;5029817;28;20025;-67
2022/07/09 01:29:17;;;;;;;1999.90;999.90;;;;;;;16.78;53.08;96422.44;5027487;28;20469;-67
2022/07/09 01:31:42;;;;;;;1999.90;999.90;;;;;;;16.82;52.79;96429.56;5029891;28;20112;-68
2022/07/09 01:34:08;;;;;;;1999.90;999.90;;;;;;;16.73;52.77;96417.22;5030022;28;20053;-67
2022/07/09 01:36:33;;;;;;;1999.90;999.90;;;;;;;16.69;52.98;96402.81;5028665;28;20029;-67
2022/07/09 01:38:59;;;;;;;1999.90;999.90;;;;;;;16.68;53.36;96403.88;5030026;28;20108;-69
2022/07/09 01:41:24;;;;;;;1999.90;999.90;;;;;;;16.81;53.15;96424.53;5028965;28;20036;-69
2022/07/09 01:43:49;;;;;;;1999.90;999.90;;;;;;;16.63;53.43;96386.03;5029154;28;20409;-68
2022/07/09 01:46:15;;;;;;;1999.90;999.90;;;;;;;16.79;53.78;96408.72;5028892;28;20041;-68
2022/07/09 01:48:42;;;;;;;1999.90;999.90;;;;;;;16.62;53.69;96393.28;5029595;28;20033;-67
2022/07/09 01:51:08;;;;;;;1999.90;999.90;;;;;;;16.88;53.22;96420.25;5027808;28;20032;-67
2022/07/09 01:53:34;;;;;;;1999.90;999.90;;;;;;;16.86;53.74;96410.94;5030603;28;20025;-69
2022/07/09 01:56:04;;;;;;;1999.90;999.90;;;;;;;16.68;53.84;96390.47;5027615;28;20100;-69
2022/07/09 01:58:29;;;;;;;1999.90;999.90;;;;;;;16.73;53.91;96406.47;5029299;28;20052;-69
2022/07/09 02:00:55;;;;;;;1999.90;999.90;;;;;;;16.64;54.09;96384.94;5027915;28;20032;-69
2022/07/09 02:03:22;;;;;;;1999.90;999.90;;;;;;;16.67;54.22;96386.97;5027517;28;20029;-67
2022/07/09 02:05:47;;;;;;;1999.90;999.90;;;;;;;16.69;54.55;96392.06;5029677;28;20065;-68
2022/07/09 02:08:13;;;;;;;1999.90;999.90;;;;;;;16.05;54.43;96298.50;5028067;28;20072;-67
2022/07/09 02:10:38;;;;;;;1999.90;999.90;;;;;;;16.62;54.46;96379.84;5029070;28;20017;-67
2022/07/09 02:13:03;;;;;;;1999.90;999.90;;;;;;;16.66;54.88;96363.13;5027911;28;20017;-67
2022/07/09 02:15:29;;;;;;;1999.90;999.90;;;;;;;16.82;54.57;96375.81;5028402;28;20113;-68
2022/07/09 02:17:54;;;;;;;1999.90;999.90;;;;;;;16.87;54.76;96377.56;5028774;28;20025;-67
2022/07/09 02:20:20;;;;;;;1999.90;999.90;;;;;;;17.00;54.52;96373.19;5029076;28;20087;-68
2022/07/09 02:22:46;;;;;;;1999.90;999.90;;;;;;;17.21;54.29;96384.91;5028260;28;20411;-67
2022/07/09 02:25:11;;;;;;;1999.90;999.90;;;;;;;17.31;53.77;96389.19;5027901;28;20048;-68
2022/07/09 02:27:37;;;;;;;1999.90;999.90;;;;;;;17.23;53.59;96373.81;5027112;28;20037;-68
2022/07/09 02:30:03;;;;;;;1999.90;999.90;;;;;;;17.37;53.68;96375.25;5027626;28;20018;-68
2022/07/09 02:32:28;;;;;;;1999.90;999.90;;;;;;;17.36;53.64;96364.81;5027215;28;20040;-68
2022/07/09 02:34:54;;;;;;;1999.90;999.90;;;;;;;17.50;53.50;96370.00;5028596;28;20048;-67
2022/07/09 02:37:19;;;;;;;1999.90;999.90;;;;;;;17.77;53.58;96371.59;5029172;28;20382;-68
2022/07/09 02:39:45;;;;;;;1999.90;999.90;;;;;;;17.83;52.98;96365.72;5027698;28;20033;-67
2022/07/09 02:42:10;;;;;;;1999.90;999.90;;;;;;;17.90;52.74;96352.56;5028573;28;20071;-67
2022/07/09 02:44:35;;;;;;;1999.90;999.90;;;;;;;17.93;52.76;96349.22;5026759;28;20470;-68
2022/07/09 02:47:01;;;;;;;1999.90;999.90;;;;;;;17.98;52.33;96353.66;5028218;28;20048;-68
2022/07/09 02:49:26;;;;;;;1999.90;999.90;;;;;;;18.15;52.43;96361.66;5024228;28;20145;-67
2022/07/09 02:51:52;;;;;;;1999.90;999.90;;;;;;;18.25;52.56;96365.91;5029680;28;20053;-68
2022/07/09 02:54:17;;;;;;;1999.90;999.90;;;;;;;18.22;52.26;96347.72;5027641;28;20033;-68
2022/07/09 02:56:43;;;;;;;1999.90;999.90;;;;;;;18.23;52.23;96345.81;5029446;28;20416;-67
2022/07/09 02:59:08;;;;;;;1999.90;999.90;;;;;;;18.26;52.47;96351.31;5026380;28;20033;-67
2022/07/09 03:01:34;;;;;;;1999.90;999.90;;;;;;;18.31;52.30;96348.44;5027008;28;20065;-68
2022/07/09 03:04:00;;;;;;;1999.90;999.90;;;;;;;18.15;52.22;96321.28;5028735;28;20032;-67
2022/07/09 03:06:25;;;;;;;1999.90;999.90;;;;;;;18.00;52.38;96294.09;5029237;28;20532;-67
2022/07/09 03:08:51;;;;;;;1999.90;999.90;;;;;;;18.08;52.25;96307.53;5025804;28;20436;-67
2022/07/09 03:11:16;;;;;;;1999.90;999.90;;;;;;;18.39;52.30;96346.84;5026503;28;20053;-67
2022/07/09 03:13:42;;;;;;;1999.90;999.90;;;;;;;18.38;52.07;96337.19;5027086;28;20033;-67
2022/07/09 03:16:07;;;;;;;1999.90;999.90;;;;;;;18.52;52.23;96367.38;5028326;28;20071;-67
2022/07/09 03:18:33;;;;;;;1999.90;999.90;;;;;;;18.55;52.25;96364.03;5029394;28;20108;-68
2022/07/09 03:20:58;;;;;;;1999.90;999.90;;;;;;;18.58;51.84;96358.00;5026017;28;20061;-68
2022/07/09 03:23:24;;;;;;;1999.90;999.90;;;;;;;18.65;51.97;96363.66;5029463;28;20368;-68
2022/07/09 03:25:49;;;;;;;1999.90;999.90;;;;;;;18.63;51.85;96359.69;5028449;28;20033;-68
2022/07/09 03:28:14;;;;;;;1999.90;999.90;;;;;;;18.59;51.87;96354.19;5026678;28;20037;-68
2022/07/09 03:30:40;;;;;;;1999.90;999.90;;;;;;;18.63;51.82;96359.69;5026912;28;20033;-68
2022/07/09 03:33:05;;;;;;;1999.90;999.90;;;;;;;18.55;51.91;96355.97;5029033;28;20025;-68
2022/07/09 03:35:30;;;;;;;1999.90;999.90;;;;;;;18.60;52.31;96360.38;5026716;28;20555;-68
2022/07/09 03:37:56;;;;;;;1999.90;999.90;;;;;;;18.55;52.14;96347.09;5029528;28;20107;-68
2022/07/09 03:40:21;;;;;;;1999.90;999.90;;;;;;;18.69;52.26;96369.22;5030307;28;20563;-68
2022/07/09 03:42:47;;;;;;;1999.90;999.90;;;;;;;18.43;52.20;96326.22;5031276;28;20124;-69
2022/07/09 03:45:12;;;;;;;1999.90;999.90;;;;;;;18.74;52.25;96381.75;5030035;28;20068;-67
2022/07/09 03:47:38;;;;;;;1999.90;999.90;;;;;;;18.66;52.38;96373.31;5033050;28;20025;-68
2022/07/09 03:50:04;;;;;;;1999.90;999.90;;;;;;;18.58;52.68;96351.81;5030606;28;20037;-67
2022/07/09 03:52:30;;;;;;;1999.90;999.90;;;;;;;18.69;52.56;96374.63;5032853;28;20021;-68
2022/07/09 03:54:55;;;;;;;1999.90;999.90;;;;;;;18.51;52.54;96373.09;5031960;28;20041;-67
2022/07/09 03:57:20;;;;;;;1999.90;999.90;;;;;;;18.48;53.26;96384.50;5031962;28;20022;-68
2022/07/09 03:59:45;;;;;;;1999.90;999.90;;;;;;;18.50;53.21;96383.09;5046680;28;20417;-68
2022/07/09 04:02:11;;;;;;;1999.90;999.90;;;;;;;18.46;53.05;96371.38;5031230;28;20025;-68
2022/07/09 04:04:36;;;;;;;1999.90;999.90;;;;;;;17.92;54.74;96358.44;5030826;28;20546;-68
2022/07/09 04:07:02;;;;;;;1999.90;999.90;;;;;;;18.08;54.68;96369.47;5031804;28;20025;-68
2022/07/09 04:09:27;;;;;;;1999.90;999.90;;;;;;;18.02;55.07;96372.66;5029750;28;20132;-69
2022/07/09 04:11:52;;;;;;;1999.90;999.90;;;;;;;18.33;54.37;96380.47;5032574;28;20076;-68
2022/07/09 04:14:19;;;;;;;1999.90;999.90;;;;;;;18.29;54.74;96377.63;5030722;28;20036;-68
2022/07/09 04:16:45;;;;;;;1999.90;999.90;;;;;;;18.30;54.44;96357.66;5032050;28;20034;-69
2022/07/09 04:19:10;;;;;;;1999.90;999.90;;;;;;;18.61;54.11;96392.38;5032794;28;20032;-68
2022/07/09 04:21:35;;;;;;;1999.90;999.90;;;;;;;18.38;54.63;96383.78;5029044;28;20527;-68
2022/07/09 04:24:01;;;;;;;1999.90;999.90;;;;;;;18.20;55.35;96382.25;5032447;28;20131;-68
2022/07/09 04:26:26;;;;;;;1999.90;999.90;;;;;;;18.54;54.78;96385.94;5030768;28;20557;-68
2022/07/09 04:28:51;;;;;;;1999.90;999.90;;;;;;;18.78;54.45;96385.34;5029674;28;20022;-68
2022/07/09 04:31:19;;;;;;;1999.90;999.90;;;;;;;19.00;54.04;96384.28;5028245;28;20036;-68
2022/07/09 04:33:44;;;;;;;1999.90;999.90;;;;;;;19.03;53.64;96376.31;5032146;28;20025;-68
2022/07/09 04:36:10;;;;;;;1999.90;999.90;;;;;;;19.23;53.60;96394.41;5031084;28;21897;-68
2022/07/09 04:38:35;;;;;;;1999.90;999.90;;;;;;;19.15;53.56;96368.31;5029999;28;20029;-67
2022/07/09 04:41:00;;;;;;;1999.90;999.90;;;;;;;19.40;53.62;96393.50;5029703;28;20520;-68
2022/07/09 04:43:26;;;;;;;1999.90;999.90;;;;;;;19.19;53.63;96350.34;5030796;28;20053;-68
2022/07/09 04:45:51;;;;;;;1999.90;999.90;;;;;;;19.49;53.42;96394.19;5029920;28;20025;-69
2022/07/09 04:48:16;;;;;;;1999.90;999.90;;;;;;;19.37;53.54;96371.78;5030537;28;20029;-68
2022/07/09 04:50:42;;;;;;;1999.90;999.90;;;;;;;19.38;53.57;96367.97;5030518;28;20025;-68
2022/07/09 04:53:07;;;;;;;1999.90;999.90;;;;;;;19.44;53.27;96369.31;5030010;28;20383;-68
2022/07/09 04:55:32;;;;;;;1999.90;999.90;;;;;;;19.57;53.48;96380.97;5031704;28;20051;-67
2022/07/09 04:57:58;;;;;;;1999.90;999.90;;;;;;;19.53;53.21;96371.97;5030801;28;20021;-67
2022/07/09 05:00:23;;;;;;;1999.90;999.90;;;;;;;19.63;53.01;96371.59;5025521;28;20029;-68
2022/07/09 05:02:48;;;;;;;1999.90;999.90;;;;;;;19.83;53.24;96389.66;5031060;28;20072;-68
2022/07/09 05:05:14;;;;;;;1999.90;999.90;;;;;;;19.99;52.82;96395.22;5029233;28;20711;-68
2022/07/09 05:07:41;;;;;;;1999.90;999.90;;;;;;;19.99;52.77;96387.09;5030267;28;20071;-68
2022/07/09 05:10:07;;;;;;;1999.90;999.90;;;;;;;20.26;52.35;96391.88;5028431;28;20501;-68
2022/07/09 05:12:32;;;;;;;1999.90;999.90;;;;;;;20.44;52.26;96394.41;5028326;28;20631;-70
2022/07/09 05:14:58;;;;;;;1999.90;999.90;;;;;;;20.44;51.49;96372.78;5029256;28;20060;-68
2022/07/09 05:17:23;;;;;;;1999.90;999.90;;;;;;;20.59;51.15;96360.53;5030436;28;20041;-68
2022/07/09 05:19:49;;;;;;;1999.90;999.90;;;;;;;20.90;50.71;96387.78;5028981;28;20083;-69
2022/07/09 05:22:15;;;;;;;1999.90;999.90;;;;;;;21.05;50.39;96391.72;5030229;28;20080;-68
2022/07/09 05:24:41;;;;;;;1999.90;999.90;;;;;;;21.27;50.40;96396.63;5025783;28;20045;-67
2022/07/09 05:27:08;;;;;;;1999.90;999.90;;;;;;;21.43;50.03;96390.50;5022588;28;20033;-67
2022/07/09 05:29:34;;;;;;;1999.90;999.90;;;;;;;21.54;49.62;96392.38;5028973;28;20029;-67
2022/07/09 05:31:59;;;;;;;1999.90;999.90;;;;;;;21.65;49.02;96383.78;5028936;28;20520;-67
2022/07/09 05:34:25;;;;;;;1999.90;999.90;;;;;;;21.83;48.92;96401.31;5028860;28;20112;-67
2022/07/09 05:36:54;;;;;;;1999.90;999.90;;;;;;;21.91;48.15;96386.06;5031003;28;20043;-68
2022/07/09 05:39:20;;;;;;;1999.90;999.90;;;;;;;21.75;48.13;96335.34;5028539;28;20029;-69
2022/07/09 05:41:46;;;;;;;1999.90;999.90;;;;;;;22.20;47.43;96391.09;5029171;28;20181;-68
2022/07/09 05:44:11;;;;;;;1999.90;999.90;;;;;;;22.35;47.14;96394.94;5028355;28;20072;-69
2022/07/09 05:46:36;;;;;;;1999.90;999.90;;;;;;;22.50;46.73;96390.69;5029135;28;20033;-67
2022/07/09 05:49:05;;;;;;;1999.90;999.90;;;;;;;22.74;45.93;96389.72;5028181;28;20052;-67
2022/07/09 05:51:30;;;;;;;1999.90;999.90;;;;;;;22.77;45.75;96378.13;5024855;28;20025;-67
2022/07/09 05:53:55;;;;;;;1999.90;999.90;;;;;;;22.76;44.97;96338.59;5029642;28;20026;-68
2022/07/09 05:56:21;;;;;;;1999.90;999.90;;;;;;;23.29;44.47;96391.38;5028272;28;20076;-70
2022/07/09 05:58:46;;;;;;;1999.90;999.90;;;;;;;23.17;43.72;96386.06;5029303;28;20033;-68
2022/07/09 06:01:13;;;;;;;1999.90;999.90;;;;;;;23.52;43.93;96396.09;5027046;28;20035;-68
2022/07/09 06:03:38;;;;;;;1999.90;999.90;;;;;;;23.72;43.22;96394.19;5030166;28;20033;-68
2022/07/09 06:06:04;;;;;;;1999.90;999.90;;;;;;;23.81;42.97;96390.13;5027817;28;20743;-68
2022/07/09 06:08:31;;;;;;;1999.90;999.90;;;;;;;24.13;42.62;96398.09;5029141;28;20025;-68
2022/07/09 06:10:57;;;;;;;1999.90;999.90;;;;;;;24.03;41.39;96372.28;5028073;28;20482;-67
2022/07/09 06:13:22;;;;;;;1999.90;999.90;;;;;;;24.18;41.55;96386.13;5028139;28;20048;-68
2022/07/09 06:15:47;;;;;;;1999.90;999.90;;;;;;;24.05;40.90;96388.22;5028123;28;20021;-69
2022/07/09 06:18:13;;;;;;;1999.90;999.90;;;;;;;24.36;41.07;96393.50;5030355;28;20095;-69
2022/07/09 06:20:38;;;;;;;1999.90;999.90;;;;;;;23.91;40.66;96404.28;5028282;28;20047;-68
2022/07/09 06:23:03;;;;;;;1999.90;999.90;;;;;;;21.58;44.83;96380.88;5028185;28;20837;-67
2022/07/09 06:25:30;;;;;;;1999.90;999.90;;;;;;;21.67;45.81;96403.97;5028949;28;20034;-68
2022/07/09 06:27:55;;;;;;;1999.90;999.90;;;;;;;21.72;45.79;96384.78;5027904;28;20027;-67
2022/07/09 06:30:20;;;;;;;1999.90;999.90;;;;;;;21.78;44.32;96386.09;5026291;28;20118;-68
2022/07/09 06:32:46;;;;;;;1999.90;999.90;;;;;;;21.11;46.26;96387.63;5028383;28;20108;-67
2022/07/09 06:35:11;;;;;;;1999.90;999.90;;;;;;;22.22;43.05;96380.72;5028651;28;20746;-68
2022/07/09 06:37:36;;;;;;;1999.90;999.90;;;;;;;21.91;44.15;96399.59;5029655;28;20057;-68
2022/07/09 06:40:02;;;;;;;1999.90;999.90;;;;;;;22.05;43.85;96397.25;5028409;28;20026;-68
2022/07/09 06:42:28;;;;;;;1999.90;999.90;;;;;;;21.42;44.33;96397.84;5027946;28;20034;-70
2022/07/09 06:44:53;;;;;;;1999.90;999.90;;;;;;;20.88;44.76;96411.69;5028791;28;20032;-69
2022/07/09 06:47:18;;;;;;;1999.90;999.90;;;;;;;20.46;46.05;96411.88;5043697;28;20025;-69
2022/07/09 06:49:44;;;;;;;1999.90;999.90;;;;;;;21.00;45.25;96411.66;5027949;28;20108;-69
2022/07/09 06:52:09;;;;;;;1999.90;999.90;;;;;;;21.67;44.70;96406.69;5025167;28;20394;-68
2022/07/09 06:54:35;;;;;;;1999.90;999.90;;;;;;;21.24;44.86;96401.91;5029159;28;20025;-69
2022/07/09 06:57:02;;;;;;;1999.90;999.90;;;;;;;20.73;46.06;96407.75;5027330;28;20714;-69
2022/07/09 06:59:27;;;;;;;1999.90;999.90;;;;;;;20.41;46.37;96403.16;5023705;28;20124;-70
2022/07/09 07:01:52;;;;;;;1999.90;999.90;;;;;;;19.93;47.58;96383.84;5021683;28;20121;-69
2022/07/09 07:04:19;;;;;;;1999.90;999.90;;;;;;;20.03;48.14;96408.84;5009649;28;20022;-67
2022/07/09 07:06:46;;;;;;;1999.90;999.90;;;;;;;20.58;47.03;96386.78;5022025;28;20065;-67
2022/07/09 07:09:12;;;;;;;1999.90;999.90;;;;;;;20.65;46.40;96399.72;5024186;28;20498;-68
2022/07/09 07:11:37;;;;;;;1999.90;999.90;;;;;;;20.71;45.99;96374.03;5017748;28;20037;-64
2022/07/09 07:14:02;;;;;;;1999.90;999.90;;;;;;;21.70;44.67;96389.75;5014291;28;20037;-64
2022/07/09 07:16:28;;;;;;;1999.90;999.90;;;;;;;22.13;44.03;96388.22;5024025;28;20025;-64
2022/07/09 07:18:54;;;;;;;1999.90;999.90;;;;;;;21.99;44.14;96376.97;5034141;28;20097;-65
2022/07/09 07:21:19;;;;;;;1999.90;999.90;;;;;;;21.17;45.79;96391.69;5017623;28;20474;-65
2022/07/09 07:23:45;;;;;;;1999.90;999.90;;;;;;;21.70;44.39;96394.34;5021323;28;20136;-65
2022/07/09 07:26:10;;;;;;;1999.90;999.90;;;;;;;21.68;45.07;96389.28;5021769;28;20033;-65
2022/07/09 07:28:36;;;;;;;1999.90;999.90;;;;;;;22.78;42.44;96380.50;5024554;28;20417;-65
2022/07/09 07:31:01;;;;;;;1999.90;999.90;;;;;;;22.67;42.18;96382.16;5019793;28;20116;-64
2022/07/09 07:33:26;;;;;;;1999.90;999.90;;;;;;;21.75;44.40;96394.94;5027558;28;20040;-64
2022/07/09 07:35:51;;;;;;;1999.90;999.90;;;;;;;22.22;43.93;96378.00;5026470;28;20087;-66
2022/07/09 07:38:17;;;;;;;1999.90;999.90;;;;;;;22.31;42.32;96384.00;5027259;28;20072;-64
2022/07/09 07:40:43;;;;;;;1999.90;999.90;;;;;;;22.77;42.02;96373.50;5028101;28;20481;-66
2022/07/09 07:43:11;;;;;;;1999.90;999.90;;;;;;;21.74;42.19;96368.94;5024348;28;20080;-67
2022/07/09 07:45:38;;;;;;;1999.90;999.90;;;;;;;21.65;42.99;96384.59;5025055;28;20029;-66
2022/07/09 07:48:03;;;;;;;1999.90;999.90;;;;;;;21.83;42.00;96363.41;5027411;28;20026;-67
2022/07/09 07:50:29;;;;;;;1999.90;999.90;;;;;;;22.03;41.61;96378.63;5027691;28;20100;-69
2022/07/09 07:52:54;;;;;;;1999.90;999.90;;;;;;;22.09;41.97;96386.50;5024189;28;20029;-72
2022/07/09 07:55:20;;;;;;;1999.90;999.90;;;;;;;22.40;41.46;96350.53;5035003;28;20028;-72
2022/07/09 07:57:45;;;;;;;1999.90;999.90;;;;;;;23.88;39.53;96366.94;5051893;28;20818;-69
2022/07/09 08:00:11;;;;;;;1999.90;999.90;;;;;;;23.97;38.69;96343.84;5031738;28;20474;-70
2022/07/09 08:02:36;;;;;;;1999.90;999.90;;;;;;;25.26;37.65;96371.16;5026990;28;20069;-68
2022/07/09 08:05:02;;;;;;;1999.90;999.90;;;;;;;25.34;36.33;96366.59;5028978;28;20083;-72
2022/07/09 08:07:27;;;;;;;1999.90;999.90;;;;;;;25.18;36.36;96365.97;5028102;28;20026;-71
2022/07/09 08:09:53;;;;;;;1999.90;999.90;;;;;;;24.67;37.00;96377.25;5026190;28;20029;-68
2022/07/09 08:12:18;;;;;;;1999.90;999.90;;;;;;;24.37;37.75;96376.03;5028964;28;20037;-72
2022/07/09 08:14:44;;;;;;;1999.90;999.90;;;;;;;24.93;37.34;96379.19;5026042;28;20045;-69
2022/07/09 08:17:09;;;;;;;1999.90;999.90;;;;;;;24.52;37.86;96376.25;5028784;28;20474;-67
2022/07/09 08:19:34;;;;;;;1999.90;999.90;;;;;;;25.20;36.88;96356.28;5041967;28;20048;-73
2022/07/09 08:22:00;;;;;;;1999.90;999.90;;;;;;;24.73;37.37;96379.31;5029192;28;20051;-68
2022/07/09 08:24:26;;;;;;;1999.90;999.90;;;;;;;24.66;37.08;96351.19;5030432;28;20025;-68
2022/07/09 08:26:51;;;;;;;1999.90;999.90;;;;;;;24.97;36.24;96344.66;5030599;28;20037;-68
2022/07/09 08:29:17;;;;;;;1999.90;999.90;;;;;;;25.50;35.82;96344.59;5029551;28;20545;-71
2022/07/09 08:31:42;;;;;;;1999.90;999.90;;;;;;;26.10;35.03;96361.66;5024093;28;20545;-71
2022/07/09 08:34:07;;;;;;;1999.90;999.90;;;;;;;25.93;32.77;96365.75;5025428;28;20036;-69
2022/07/09 08:36:32;;;;;;;1999.90;999.90;;;;;;;25.35;33.32;96370.88;5029945;28;20354;-74
2022/07/09 08:38:58;;;;;;;1999.90;999.90;;;;;;;22.94;38.08;96363.44;5031193;28;20036;-66
2022/07/09 08:41:23;;;;;;;1999.90;999.90;;;;;;;23.08;38.16;96350.16;5029640;28;20502;-70
2022/07/09 08:43:51;;;;;;;1999.90;999.90;;;;;;;22.89;37.91;96353.66;5029016;28;20018;-68
2022/07/09 08:46:16;;;;;;;1999.90;999.90;;;;;;;22.86;38.78;96359.75;5021265;28;20048;-67
2022/07/09 08:48:43;;;;;;;1999.90;999.90;;;;;;;22.47;37.00;96310.03;5028105;28;20491;-70
2022/07/09 08:51:09;;;;;;;1999.90;999.90;;;;;;;22.98;37.78;96359.69;5033348;28;20040;-64
2022/07/09 08:53:40;;;;;;;1999.90;999.90;;;;;;;23.92;37.78;96335.19;5030509;28;20033;-67
2022/07/09 08:56:06;;;;;;;1999.90;999.90;;;;;;;24.59;36.47;96349.16;5029137;28;20096;-67
2022/07/09 08:58:31;;;;;;;1999.90;999.90;;;;;;;24.03;35.97;96328.00;5037186;28;20029;-67
2022/07/09 09:00:58;;;;;;;1999.90;999.90;;;;;;;24.12;37.99;96337.50;5019120;28;20088;-64
2022/07/09 09:03:24;;;;;;;1999.90;999.90;;;;;;;24.89;35.31;96330.16;5023679;28;20034;-66
2022/07/09 09:06:02;;;;;;;1999.90;999.90;;;;;;;24.23;35.28;96337.69;5018447;28;20030;-68
2022/07/09 09:08:35;;;;;;;1999.90;999.90;;;;;;;24.90;34.90;96334.47;5019657;28;20165;-65
2022/07/09 09:11:05;;;;;;;1999.90;999.90;;;;;;;23.74;36.40;96326.69;5011226;28;20018;-65
2022/07/09 09:13:36;;;;;;;1999.90;999.90;;;;;;;24.84;35.18;96319.59;5040470;28;20036;-65
2022/07/09 09:16:06;;;;;;;1999.90;999.90;;;;;;;25.51;34.14;96316.22;5033165;28;20025;-65
2022/07/09 09:18:34;;;;;;;1999.90;999.90;;;;;;;25.85;33.22;96317.00;5020313;28;20029;-65
2022/07/09 09:21:04;;;;;;;1999.90;999.90;;;;;;;25.91;33.05;96313.56;5011276;28;20026;-66
2022/07/09 09:23:29;;;;;;;1999.90;999.90;;;;;;;24.93;33.05;96294.81;5011602;28;20030;-66
2022/07/09 09:25:55;;;;;;;1999.90;999.90;;;;;;;25.52;32.81;96291.31;5023569;28;20034;-66
2022/07/09 09:28:20;;;;;;;1999.90;999.90;;;;;;;26.09;32.32;96293.84;5026626;28;20126;-66
2022/07/09 09:30:46;;;;;;;1999.90;999.90;;;;;;;26.16;31.90;96281.06;5045060;28;20104;-66
2022/07/09 09:33:15;;;;;;;1999.90;999.90;;;;;;;24.12;33.00;96306.81;5025224;28;20054;-66
2022/07/09 09:35:44;;;;;;;1999.90;999.90;;;;;;;25.29;33.06;96315.97;5013395;28;20029;-65
2022/07/09 09:38:10;;;;;;;1999.90;999.90;;;;;;;25.84;31.69;96297.09;5017418;28;20568;-65
2022/07/09 09:40:36;;;;;;;1999.90;999.90;;;;;;;26.15;31.17;96252.19;5029387;28;20112;-65
2022/07/09 09:43:03;;;;;;;1999.90;999.90;;;;;;;26.29;31.03;96314.28;5032606;28;20028;-65
2022/07/09 09:45:28;;;;;;;1999.90;999.90;;;;;;;25.38;32.25;96310.97;5048215;28;20092;-65
2022/07/09 09:47:54;;;;;;;1999.90;999.90;;;;;;;25.54;31.68;96310.00;5030752;28;20025;-75
2022/07/09 09:50:21;;;;;;;1999.90;999.90;;;;;;;25.41;31.51;96310.25;5029011;28;20061;-65
2022/07/09 09:52:52;;;;;;;1999.90;999.90;;;;;;;25.98;30.31;96301.91;5046137;28;20052;-65
2022/07/09 09:55:18;;;;;;;;;;;;;;;24.43;33.17;96307.72;5028951;28;20036;-66
2022/07/09 09:57:44;;;;;;;1999.90;999.90;;;;;;;24.58;33.01;96304.06;5029860;28;19913;-66
2022/07/09 10:00:15;;;;;;;1999.90;999.90;;;;;;;23.77;34.40;96296.88;5048484;28;20082;-66
2022/07/09 10:02:45;;;;;;;1999.90;999.90;;;;;;;25.87;31.61;96296.38;5028485;28;20026;-66
2022/07/09 10:05:11;;;;;;;1999.90;999.90;;;;;;;25.92;31.00;96282.41;5017064;28;20057;-66
2022/07/09 10:07:36;;;;;;;1999.90;999.90;;;;;;;27.42;29.78;96264.25;5019793;28;20126;-66
2022/07/09 10:10:05;;;;;;;1999.90;999.90;;;;;;;26.90;30.20;96269.09;5024665;28;20037;-67
2022/07/09 10:12:33;;;;;;;1999.90;999.90;;;;;;;24.97;31.49;96284.78;5026136;28;20025;-67
2022/07/09 10:14:59;;;;;;;1999.90;999.90;;;;;;;24.28;33.10;96274.06;5028349;28;20393;-66
2022/07/09 10:17:26;;;;;;;1999.90;999.90;;;;;;;24.73;32.51;96269.69;5027864;28;20112;-66
2022/07/09 10:19:55;;;;;;;1999.90;999.90;;;;;;;25.99;30.60;96286.34;5028266;28;20051;-66
2022/07/09 10:22:37;;;;;;;1999.90;999.90;;;;;;;26.06;29.16;96249.03;5028868;28;20022;-66
2022/07/09 10:25:03;;;;;;;1999.90;999.90;;;;;;;25.88;30.88;96270.69;5053002;22;20040;-67
2022/07/09 10:27:28;;;;;;;1999.90;999.90;;;;;;;25.02;33.03;96295.34;5047008;28;20037;-67
2022/07/09 10:29:56;;;;;;;1999.90;999.90;;;;;;;24.34;34.32;96280.75;5047206;28;20058;-67
2022/07/09 10:32:35;;;;;;;1999.90;999.90;;;;;;;23.39;36.64;96288.75;5047916;28;20037;-69
2022/07/09 10:35:05;;;;;;;1999.90;999.90;;;;;;;23.72;35.62;96291.75;5048506;28;20029;-67
2022/07/09 10:37:44;;;;;;;1999.90;999.90;;;;;;;23.69;35.14;96297.91;5048579;28;20025;-67
2022/07/09 10:40:12;;;;;;;1999.90;999.90;;;;;;;24.80;33.60;96297.78;5047553;28;20025;-67
2022/07/09 10:42:39;;;;;;;1999.90;999.90;;;;;;;24.37;33.07;96297.16;5047782;28;20033;-67
2022/07/09 10:45:19;;;;;;;1999.90;999.90;;;;;;;24.58;33.25;96288.53;5040829;28;20036;-67
2022/07/09 10:47:49;;;;;;;1999.90;999.90;;;;;;;23.75;34.79;96249.47;5030948;28;20079;-67
2022/07/09 10:50:14;;;;;;;1999.90;999.90;;;;;;;24.49;34.19;96260.03;5029500;28;20032;-67